La Vista, Nebraska
Current Conditions -  °F | °C
As of 4:35 AM on Monday 22 Dec 2014 (Local Time) from KMLE Reporting Station
Moderate Rain Moderate Rain  
Wind Chill: 39°   Ceiling: 700
Heat Index: 43°   Visibility: 4mi
Dew Point: 41°   Wind: 8mph
Humidity: 93%   Direction: 150°SSE
Pressure: 29.55"   Gusts: NA
Location:  41.19°N, 96.04°W
Report Text: KMLE 221035Z AUTO 15007KT 4SM RA OVC007 06/05 A2955 RMK AO2 P0001 T00630052
Loading
Personal Weather Stations






























Interactive Weather Map New forecast layout! Learn more

10-Day Weather Forecast

Advertisements
Track Severe Weather on mobile